Terminal Aerodrome Forecast
Issued by NWS Upton, NY

Home | Current Version | Previous Version | Text Only | Print | Product List | Glossary On
Versions: 1 2 3 4 5 6 7 8 9 10 11 12 13 14 15 16 17 18 19 20 21 22 23 24 25 26 27 28 29 30 31 32 33 34 35 36
276
FTUS41 KOKX 291904 AAA
TAFBDR
TAF AMD
KBDR 291904Z 2919/3018 34015G22KT P6SM FEW040
     FM292300 35012KT P6SM SKC
     FM300000 35008KT P6SM SKC
     FM300500 35005KT P6SM SKC
     FM301200 36008KT P6SM SCT200=

USA.gov is the U.S. government's official web portal to all federal, state and local government web resources and services.